sensor_id;sensor_type;location;lat;lon;timestamp;pressure;altitude;pressure_sealevel;temperature
15626;BMP180;7912;51.376;6.126;2023-08-20T00:00:46;101731.00;;;23.00
15626;BMP180;7912;51.376;6.126;2023-08-20T00:03:14;101731.00;;;23.00
15626;BMP180;7912;51.376;6.126;2023-08-20T00:05:43;101729.00;;;23.00
15626;BMP180;7912;51.376;6.126;2023-08-20T00:08:14;101722.00;;;23.00
15626;BMP180;7912;51.376;6.126;2023-08-20T00:10:46;101720.00;;;23.00
15626;BMP180;7912;51.376;6.126;2023-08-20T00:13:14;101721.00;;;23.00
15626;BMP180;7912;51.376;6.126;2023-08-20T00:15:42;101710.00;;;22.90
15626;BMP180;7912;51.376;6.126;2023-08-20T00:18:16;101725.00;;;22.90
15626;BMP180;7912;51.376;6.126;2023-08-20T00:20:51;101716.00;;;22.90
15626;BMP180;7912;51.376;6.126;2023-08-20T00:23:39;101724.00;;;22.80
15626;BMP180;7912;51.376;6.126;2023-08-20T00:26:08;101730.00;;;22.80
15626;BMP180;7912;51.376;6.126;2023-08-20T00:28:42;101725.00;;;22.70
15626;BMP180;7912;51.376;6.126;2023-08-20T00:31:29;101735.00;;;22.70
15626;BMP180;7912;51.376;6.126;2023-08-20T00:34:25;101731.00;;;22.70
15626;BMP180;7912;51.376;6.126;2023-08-20T00:36:58;101727.00;;;22.60
15626;BMP180;7912;51.376;6.126;2023-08-20T00:39:36;101741.00;;;22.60
15626;BMP180;7912;51.376;6.126;2023-08-20T00:42:07;101732.00;;;22.60
15626;BMP180;7912;51.376;6.126;2023-08-20T00:44:56;101746.00;;;22.50
15626;BMP180;7912;51.376;6.126;2023-08-20T00:47:38;101752.00;;;22.50
15626;BMP180;7912;51.376;6.126;2023-08-20T00:54:19;101754.00;;;22.40
15626;BMP180;7912;51.376;6.126;2023-08-20T00:56:56;101748.00;;;22.40
15626;BMP180;7912;51.376;6.126;2023-08-20T01:03:41;101740.00;;;22.30
15626;BMP180;7912;51.376;6.126;2023-08-20T01:06:32;101741.00;;;22.30
15626;BMP180;7912;51.376;6.126;2023-08-20T01:12:02;101748.00;;;22.40
15626;BMP180;7912;51.376;6.126;2023-08-20T01:14:34;101755.00;;;22.50
15626;BMP180;7912;51.376;6.126;2023-08-20T01:17:15;101749.00;;;22.60
15626;BMP180;7912;51.376;6.126;2023-08-20T01:24:17;101748.00;;;22.70
15626;BMP180;7912;51.376;6.126;2023-08-20T01:27:25;101753.00;;;22.70
15626;BMP180;7912;51.376;6.126;2023-08-20T01:30:08;101754.00;;;22.70
15626;BMP180;7912;51.376;6.126;2023-08-20T01:32:43;101761.00;;;22.80
15626;BMP180;7912;51.376;6.126;2023-08-20T01:35:13;101738.00;;;22.80
15626;BMP180;7912;51.376;6.126;2023-08-20T01:37:50;101757.00;;;22.80
15626;BMP180;7912;51.376;6.126;2023-08-20T01:40:22;101761.00;;;22.80
15626;BMP180;7912;51.376;6.126;2023-08-20T01:42:54;101761.00;;;22.90
15626;BMP180;7912;51.376;6.126;2023-08-20T01:49:28;101775.00;;;22.80
15626;BMP180;7912;51.376;6.126;2023-08-20T01:51:55;101791.00;;;22.80
15626;BMP180;7912;51.376;6.126;2023-08-20T01:54:23;101804.00;;;22.90
15626;BMP180;7912;51.376;6.126;2023-08-20T01:56:53;101798.00;;;22.90
15626;BMP180;7912;51.376;6.126;2023-08-20T01:59:22;101805.00;;;22.80
15626;BMP180;7912;51.376;6.126;2023-08-20T02:01:51;101793.00;;;22.80
15626;BMP180;7912;51.376;6.126;2023-08-20T02:08:28;101790.00;;;22.70
15626;BMP180;7912;51.376;6.126;2023-08-20T02:11:03;101795.00;;;22.70
15626;BMP180;7912;51.376;6.126;2023-08-20T02:13:32;101795.00;;;22.70
15626;BMP180;7912;51.376;6.126;2023-08-20T02:16:04;101794.00;;;22.70
15626;BMP180;7912;51.376;6.126;2023-08-20T02:18:32;101788.00;;;22.70
15626;BMP180;7912;51.376;6.126;2023-08-20T02:21:00;101791.00;;;22.70
15626;BMP180;7912;51.376;6.126;2023-08-20T02:23:31;101792.00;;;22.70
15626;BMP180;7912;51.376;6.126;2023-08-20T02:25:59;101796.00;;;22.70
15626;BMP180;7912;51.376;6.126;2023-08-20T02:28:27;101789.00;;;22.80
15626;BMP180;7912;51.376;6.126;2023-08-20T02:30:55;101787.00;;;22.70
15626;BMP180;7912;51.376;6.126;2023-08-20T02:33:27;101792.00;;;22.70
15626;BMP180;7912;51.376;6.126;2023-08-20T02:35:55;101795.00;;;22.70
15626;BMP180;7912;51.376;6.126;2023-08-20T02:38:28;101788.00;;;22.70
15626;BMP180;7912;51.376;6.126;2023-08-20T02:40:56;101792.00;;;22.70
15626;BMP180;7912;51.376;6.126;2023-08-20T02:43:24;101790.00;;;22.70
15626;BMP180;7912;51.376;6.126;2023-08-20T02:45:54;101796.00;;;22.60
15626;BMP180;7912;51.376;6.126;2023-08-20T02:48:24;101806.00;;;22.60
15626;BMP180;7912;51.376;6.126;2023-08-20T02:51:32;101824.00;;;22.50
15626;BMP180;7912;51.376;6.126;2023-08-20T02:54:00;101822.00;;;22.50
15626;BMP180;7912;51.376;6.126;2023-08-20T02:56:28;101815.00;;;22.50
15626;BMP180;7912;51.376;6.126;2023-08-20T02:58:55;101822.00;;;22.50
15626;BMP180;7912;51.376;6.126;2023-08-20T03:01:25;101820.00;;;22.50
15626;BMP180;7912;51.376;6.126;2023-08-20T03:03:54;101803.00;;;22.50
15626;BMP180;7912;51.376;6.126;2023-08-20T03:06:25;101782.00;;;22.40
15626;BMP180;7912;51.376;6.126;2023-08-20T03:08:57;101799.00;;;22.50
15626;BMP180;7912;51.376;6.126;2023-08-20T03:11:25;101813.00;;;22.40
15626;BMP180;7912;51.376;6.126;2023-08-20T03:13:55;101808.00;;;22.40
15626;BMP180;7912;51.376;6.126;2023-08-20T03:16:24;101804.00;;;22.40
15626;BMP180;7912;51.376;6.126;2023-08-20T03:18:52;101794.00;;;22.40
15626;BMP180;7912;51.376;6.126;2023-08-20T03:21:19;101812.00;;;22.40
15626;BMP180;7912;51.376;6.126;2023-08-20T03:23:47;101819.00;;;22.30
15626;BMP180;7912;51.376;6.126;2023-08-20T03:26:14;101812.00;;;22.30
15626;BMP180;7912;51.376;6.126;2023-08-20T03:28:47;101798.00;;;22.30
15626;BMP180;7912;51.376;6.126;2023-08-20T03:31:14;101801.00;;;22.30
15626;BMP180;7912;51.376;6.126;2023-08-20T03:33:44;101809.00;;;22.20
15626;BMP180;7912;51.376;6.126;2023-08-20T03:36:12;101797.00;;;22.20
15626;BMP180;7912;51.376;6.126;2023-08-20T03:38:39;101794.00;;;22.20
15626;BMP180;7912;51.376;6.126;2023-08-20T03:41:07;101791.00;;;22.10
15626;BMP180;7912;51.376;6.126;2023-08-20T03:43:34;101794.00;;;22.10
15626;BMP180;7912;51.376;6.126;2023-08-20T03:46:02;101796.00;;;22.10
15626;BMP180;7912;51.376;6.126;2023-08-20T03:48:29;101787.00;;;22.10
15626;BMP180;7912;51.376;6.126;2023-08-20T03:50:57;101790.00;;;22.10
15626;BMP180;7912;51.376;6.126;2023-08-20T03:53:44;101800.00;;;22.00
15626;BMP180;7912;51.376;6.126;2023-08-20T03:56:15;101800.00;;;22.00
15626;BMP180;7912;51.376;6.126;2023-08-20T03:58:45;101801.00;;;22.00
15626;BMP180;7912;51.376;6.126;2023-08-20T04:01:13;101798.00;;;21.90
15626;BMP180;7912;51.376;6.126;2023-08-20T04:03:40;101795.00;;;21.90
15626;BMP180;7912;51.376;6.126;2023-08-20T04:06:09;101797.00;;;21.90
15626;BMP180;7912;51.376;6.126;2023-08-20T04:08:36;101791.00;;;21.90
15626;BMP180;7912;51.376;6.126;2023-08-20T04:11:03;101802.00;;;21.80
15626;BMP180;7912;51.376;6.126;2023-08-20T04:13:33;101811.00;;;21.80
15626;BMP180;7912;51.376;6.126;2023-08-20T04:16:01;101819.00;;;21.80
15626;BMP180;7912;51.376;6.126;2023-08-20T04:18:32;101815.00;;;21.80
15626;BMP180;7912;51.376;6.126;2023-08-20T04:20:59;101813.00;;;21.70
15626;BMP180;7912;51.376;6.126;2023-08-20T04:23:28;101810.00;;;21.70
15626;BMP180;7912;51.376;6.126;2023-08-20T04:25:56;101812.00;;;21.70
15626;BMP180;7912;51.376;6.126;2023-08-20T04:28:24;101817.00;;;21.70
15626;BMP180;7912;51.376;6.126;2023-08-20T04:30:53;101806.00;;;21.60
15626;BMP180;7912;51.376;6.126;2023-08-20T04:33:24;101812.00;;;21.60
15626;BMP180;7912;51.376;6.126;2023-08-20T04:35:52;101810.00;;;21.60
15626;BMP180;7912;51.376;6.126;2023-08-20T04:38:22;101797.00;;;21.60
15626;BMP180;7912;51.376;6.126;2023-08-20T04:40:50;101806.00;;;21.50
15626;BMP180;7912;51.376;6.126;2023-08-20T04:43:18;101810.00;;;21.50
15626;BMP180;7912;51.376;6.126;2023-08-20T04:45:47;101814.00;;;21.50
15626;BMP180;7912;51.376;6.126;2023-08-20T04:48:14;101815.00;;;21.50
15626;BMP180;7912;51.376;6.126;2023-08-20T04:50:42;101808.00;;;21.50
15626;BMP180;7912;51.376;6.126;2023-08-20T04:53:09;101813.00;;;21.50
15626;BMP180;7912;51.376;6.126;2023-08-20T04:55:37;101812.00;;;21.50
15626;BMP180;7912;51.376;6.126;2023-08-20T04:58:10;101816.00;;;21.50
15626;BMP180;7912;51.376;6.126;2023-08-20T05:00:38;101815.00;;;21.60
15626;BMP180;7912;51.376;6.126;2023-08-20T05:03:06;101820.00;;;21.60
15626;BMP180;7912;51.376;6.126;2023-08-20T05:05:33;101821.00;;;21.60
15626;BMP180;7912;51.376;6.126;2023-08-20T05:08:01;101818.00;;;21.60
15626;BMP180;7912;51.376;6.126;2023-08-20T05:10:32;101832.00;;;21.70
15626;BMP180;7912;51.376;6.126;2023-08-20T05:13:00;101826.00;;;21.70
15626;BMP180;7912;51.376;6.126;2023-08-20T05:15:27;101838.00;;;21.70
15626;BMP180;7912;51.376;6.126;2023-08-20T05:17:55;101830.00;;;21.70
15626;BMP180;7912;51.376;6.126;2023-08-20T05:20:23;101833.00;;;21.80
15626;BMP180;7912;51.376;6.126;2023-08-20T05:22:50;101836.00;;;21.90
15626;BMP180;7912;51.376;6.126;2023-08-20T05:25:17;101843.00;;;21.90
15626;BMP180;7912;51.376;6.126;2023-08-20T05:27:45;101838.00;;;21.90
15626;BMP180;7912;51.376;6.126;2023-08-20T05:30:15;101839.00;;;22.00
15626;BMP180;7912;51.376;6.126;2023-08-20T05:32:43;101832.00;;;22.00
15626;BMP180;7912;51.376;6.126;2023-08-20T05:35:11;101839.00;;;22.10
15626;BMP180;7912;51.376;6.126;2023-08-20T05:37:39;101846.00;;;22.20
15626;BMP180;7912;51.376;6.126;2023-08-20T05:40:10;101841.00;;;22.20
15626;BMP180;7912;51.376;6.126;2023-08-20T05:42:40;101842.00;;;22.30
15626;BMP180;7912;51.376;6.126;2023-08-20T05:45:09;101838.00;;;22.40
15626;BMP180;7912;51.376;6.126;2023-08-20T05:47:36;101837.00;;;22.40
15626;BMP180;7912;51.376;6.126;2023-08-20T05:50:04;101840.00;;;22.50
15626;BMP180;7912;51.376;6.126;2023-08-20T05:52:32;101844.00;;;22.60
15626;BMP180;7912;51.376;6.126;2023-08-20T05:55:00;101843.00;;;22.60
15626;BMP180;7912;51.376;6.126;2023-08-20T05:57:30;101839.00;;;22.70
15626;BMP180;7912;51.376;6.126;2023-08-20T05:59:58;101848.00;;;22.80
15626;BMP180;7912;51.376;6.126;2023-08-20T06:02:29;101850.00;;;22.90
15626;BMP180;7912;51.376;6.126;2023-08-20T06:04:57;101838.00;;;22.90
15626;BMP180;7912;51.376;6.126;2023-08-20T06:07:25;101854.00;;;23.00
15626;BMP180;7912;51.376;6.126;2023-08-20T06:09:52;101857.00;;;23.10
15626;BMP180;7912;51.376;6.126;2023-08-20T06:12:20;101854.00;;;23.20
15626;BMP180;7912;51.376;6.126;2023-08-20T06:14:48;101857.00;;;23.30
15626;BMP180;7912;51.376;6.126;2023-08-20T06:17:16;101852.00;;;23.40
15626;BMP180;7912;51.376;6.126;2023-08-20T06:19:46;101846.00;;;23.50
15626;BMP180;7912;51.376;6.126;2023-08-20T06:22:13;101842.00;;;23.70
15626;BMP180;7912;51.376;6.126;2023-08-20T06:24:42;101858.00;;;23.80
15626;BMP180;7912;51.376;6.126;2023-08-20T06:27:10;101851.00;;;23.90
15626;BMP180;7912;51.376;6.126;2023-08-20T06:29:40;101848.00;;;23.90
15626;BMP180;7912;51.376;6.126;2023-08-20T06:32:07;101845.00;;;24.00
15626;BMP180;7912;51.376;6.126;2023-08-20T06:34:35;101852.00;;;24.10
15626;BMP180;7912;51.376;6.126;2023-08-20T06:37:03;101855.00;;;24.20
15626;BMP180;7912;51.376;6.126;2023-08-20T06:39:31;101852.00;;;24.30
15626;BMP180;7912;51.376;6.126;2023-08-20T06:41:58;101850.00;;;24.40
15626;BMP180;7912;51.376;6.126;2023-08-20T06:44:26;101841.00;;;24.50
15626;BMP180;7912;51.376;6.126;2023-08-20T06:46:54;101847.00;;;24.60
15626;BMP180;7912;51.376;6.126;2023-08-20T06:49:22;101850.00;;;24.70
15626;BMP180;7912;51.376;6.126;2023-08-20T06:51:50;101849.00;;;24.80
15626;BMP180;7912;51.376;6.126;2023-08-20T06:54:20;101849.00;;;24.90
15626;BMP180;7912;51.376;6.126;2023-08-20T06:56:48;101839.00;;;24.90
15626;BMP180;7912;51.376;6.126;2023-08-20T06:59:19;101840.00;;;25.00
15626;BMP180;7912;51.376;6.126;2023-08-20T07:01:47;101845.00;;;25.20
15626;BMP180;7912;51.376;6.126;2023-08-20T07:04:14;101853.00;;;25.30
15626;BMP180;7912;51.376;6.126;2023-08-20T07:14:52;101861.00;;;26.00
15626;BMP180;7912;51.376;6.126;2023-08-20T07:17:21;101849.00;;;26.30
15626;BMP180;7912;51.376;6.126;2023-08-20T07:23:14;101858.00;;;27.00
15626;BMP180;7912;51.376;6.126;2023-08-20T07:25:44;101858.00;;;27.30
15626;BMP180;7912;51.376;6.126;2023-08-20T07:28:18;101854.00;;;27.60
15626;BMP180;7912;51.376;6.126;2023-08-20T07:31:09;101858.00;;;28.00
15626;BMP180;7912;51.376;6.126;2023-08-20T07:33:36;101857.00;;;28.40
15626;BMP180;7912;51.376;6.126;2023-08-20T07:36:04;101850.00;;;28.70
15626;BMP180;7912;51.376;6.126;2023-08-20T07:38:36;101846.00;;;29.10
15626;BMP180;7912;51.376;6.126;2023-08-20T07:41:19;101848.00;;;29.70
15626;BMP180;7912;51.376;6.126;2023-08-20T07:43:49;101846.00;;;30.20
15626;BMP180;7912;51.376;6.126;2023-08-20T07:46:19;101847.00;;;30.90
15626;BMP180;7912;51.376;6.126;2023-08-20T07:48:47;101844.00;;;31.60
15626;BMP180;7912;51.376;6.126;2023-08-20T07:51:15;101845.00;;;32.20
15626;BMP180;7912;51.376;6.126;2023-08-20T07:53:48;101842.00;;;32.70
15626;BMP180;7912;51.376;6.126;2023-08-20T07:56:19;101849.00;;;32.80
15626;BMP180;7912;51.376;6.126;2023-08-20T07:58:57;101859.00;;;32.80
15626;BMP180;7912;51.376;6.126;2023-08-20T08:01:24;101844.00;;;32.70
15626;BMP180;7912;51.376;6.126;2023-08-20T08:03:51;101856.00;;;32.60
15626;BMP180;7912;51.376;6.126;2023-08-20T08:06:23;101857.00;;;32.30
15626;BMP180;7912;51.376;6.126;2023-08-20T08:08:57;101858.00;;;32.00
15626;BMP180;7912;51.376;6.126;2023-08-20T08:11:59;101865.00;;;31.50
15626;BMP180;7912;51.376;6.126;2023-08-20T08:14:29;101870.00;;;31.20
15626;BMP180;7912;51.376;6.126;2023-08-20T08:21:13;101875.00;;;30.50
15626;BMP180;7912;51.376;6.126;2023-08-20T08:23:58;101876.00;;;30.30
15626;BMP180;7912;51.376;6.126;2023-08-20T08:26:29;101876.00;;;30.20
15626;BMP180;7912;51.376;6.126;2023-08-20T08:28:57;101887.00;;;30.10
15626;BMP180;7912;51.376;6.126;2023-08-20T08:31:43;101889.00;;;29.90
15626;BMP180;7912;51.376;6.126;2023-08-20T08:34:11;101903.00;;;29.90
15626;BMP180;7912;51.376;6.126;2023-08-20T08:36:38;101901.00;;;29.90
15626;BMP180;7912;51.376;6.126;2023-08-20T08:39:07;101905.00;;;29.90
15626;BMP180;7912;51.376;6.126;2023-08-20T08:41:38;101904.00;;;29.90
15626;BMP180;7912;51.376;6.126;2023-08-20T08:44:09;101895.00;;;29.80
15626;BMP180;7912;51.376;6.126;2023-08-20T08:46:38;101896.00;;;30.00
15626;BMP180;7912;51.376;6.126;2023-08-20T08:49:09;101896.00;;;30.40
15626;BMP180;7912;51.376;6.126;2023-08-20T08:51:38;101892.00;;;31.00
15626;BMP180;7912;51.376;6.126;2023-08-20T08:54:07;101895.00;;;31.70
15626;BMP180;7912;51.376;6.126;2023-08-20T08:56:36;101890.00;;;32.50
15626;BMP180;7912;51.376;6.126;2023-08-20T08:59:03;101888.00;;;33.20
15626;BMP180;7912;51.376;6.126;2023-08-20T09:01:31;101882.00;;;33.90
15626;BMP180;7912;51.376;6.126;2023-08-20T09:04:00;101892.00;;;34.40
15626;BMP180;7912;51.376;6.126;2023-08-20T09:06:52;101890.00;;;34.90
15626;BMP180;7912;51.376;6.126;2023-08-20T09:09:30;101882.00;;;35.60
15626;BMP180;7912;51.376;6.126;2023-08-20T09:12:19;101888.00;;;36.30
15626;BMP180;7912;51.376;6.126;2023-08-20T09:36:10;101918.00;;;33.80
15626;BMP180;7912;51.376;6.126;2023-08-20T09:38:38;101915.00;;;33.40
15626;BMP180;7912;51.376;6.126;2023-08-20T09:41:09;101915.00;;;33.30
15626;BMP180;7912;51.376;6.126;2023-08-20T09:43:41;101924.00;;;33.60
15626;BMP180;7912;51.376;6.126;2023-08-20T09:46:16;101925.00;;;34.00
15626;BMP180;7912;51.376;6.126;2023-08-20T09:48:55;101922.00;;;34.40
15626;BMP180;7912;51.376;6.126;2023-08-20T09:51:42;101932.00;;;35.10
15626;BMP180;7912;51.376;6.126;2023-08-20T09:54:23;101915.00;;;35.60
15626;BMP180;7912;51.376;6.126;2023-08-20T09:56:58;101919.00;;;35.80
15626;BMP180;7912;51.376;6.126;2023-08-20T09:59:27;101917.00;;;35.90
15626;BMP180;7912;51.376;6.126;2023-08-20T10:01:56;101918.00;;;36.00
15626;BMP180;7912;51.376;6.126;2023-08-20T10:04:26;101915.00;;;36.00
15626;BMP180;7912;51.376;6.126;2023-08-20T10:06:55;101916.00;;;36.20
15626;BMP180;7912;51.376;6.126;2023-08-20T10:09:30;101919.00;;;36.20
15626;BMP180;7912;51.376;6.126;2023-08-20T10:11:58;101922.00;;;36.40
15626;BMP180;7912;51.376;6.126;2023-08-20T10:14:25;101926.00;;;36.70
15626;BMP180;7912;51.376;6.126;2023-08-20T10:16:56;101921.00;;;36.70
15626;BMP180;7912;51.376;6.126;2023-08-20T10:19:30;101922.00;;;36.50
15626;BMP180;7912;51.376;6.126;2023-08-20T10:21:57;101925.00;;;36.30
15626;BMP180;7912;51.376;6.126;2023-08-20T10:24:27;101927.00;;;36.20
15626;BMP180;7912;51.376;6.126;2023-08-20T10:27:31;101919.00;;;36.60
15626;BMP180;7912;51.376;6.126;2023-08-20T10:30:25;101920.00;;;36.90
15626;BMP180;7912;51.376;6.126;2023-08-20T10:33:34;101914.00;;;36.80
15626;BMP180;7912;51.376;6.126;2023-08-20T10:37:28;101923.00;;;37.00
15626;BMP180;7912;51.376;6.126;2023-08-20T10:40:09;101924.00;;;37.00
15626;BMP180;7912;51.376;6.126;2023-08-20T10:47:07;101921.00;;;36.70
15626;BMP180;7912;51.376;6.126;2023-08-20T10:49:35;101922.00;;;37.40
15626;BMP180;7912;51.376;6.126;2023-08-20T10:52:02;101924.00;;;38.10
15626;BMP180;7912;51.376;6.126;2023-08-20T10:54:30;101920.00;;;38.70
15626;BMP180;7912;51.376;6.126;2023-08-20T10:56:58;101920.00;;;38.80
15626;BMP180;7912;51.376;6.126;2023-08-20T10:59:30;101922.00;;;38.50
15626;BMP180;7912;51.376;6.126;2023-08-20T11:01:58;101922.00;;;38.50
15626;BMP180;7912;51.376;6.126;2023-08-20T11:18:28;101933.00;;;39.90
15626;BMP180;7912;51.376;6.126;2023-08-20T11:20:55;101930.00;;;39.80
15626;BMP180;7912;51.376;6.126;2023-08-20T11:57:08;101921.00;;;38.20
15626;BMP180;7912;51.376;6.126;2023-08-20T12:03:50;101915.00;;;38.40
15626;BMP180;7912;51.376;6.126;2023-08-20T12:10:49;101894.00;;;39.70
15626;BMP180;7912;51.376;6.126;2023-08-20T12:13:32;101889.00;;;40.50
15626;BMP180;7912;51.376;6.126;2023-08-20T12:16:22;101881.00;;;41.20
15626;BMP180;7912;51.376;6.126;2023-08-20T12:22:03;101888.00;;;42.30
15626;BMP180;7912;51.376;6.126;2023-08-20T12:24:32;101882.00;;;42.70
15626;BMP180;7912;51.376;6.126;2023-08-20T12:27:04;101873.00;;;42.90
15626;BMP180;7912;51.376;6.126;2023-08-20T12:29:39;101876.00;;;43.30
15626;BMP180;7912;51.376;6.126;2023-08-20T12:32:08;101870.00;;;43.70
15626;BMP180;7912;51.376;6.126;2023-08-20T12:34:36;101874.00;;;43.80
15626;BMP180;7912;51.376;6.126;2023-08-20T12:37:07;101872.00;;;43.80
15626;BMP180;7912;51.376;6.126;2023-08-20T12:39:35;101870.00;;;43.20
15626;BMP180;7912;51.376;6.126;2023-08-20T12:42:03;101865.00;;;42.50
15626;BMP180;7912;51.376;6.126;2023-08-20T12:44:32;101877.00;;;41.90
15626;BMP180;7912;51.376;6.126;2023-08-20T12:46:59;101861.00;;;41.70
15626;BMP180;7912;51.376;6.126;2023-08-20T12:49:30;101873.00;;;41.60
15626;BMP180;7912;51.376;6.126;2023-08-20T12:52:02;101873.00;;;41.80
15626;BMP180;7912;51.376;6.126;2023-08-20T12:54:33;101865.00;;;42.20
15626;BMP180;7912;51.376;6.126;2023-08-20T12:57:10;101863.00;;;42.30
15626;BMP180;7912;51.376;6.126;2023-08-20T12:59:38;101858.00;;;42.10
15626;BMP180;7912;51.376;6.126;2023-08-20T13:02:19;101853.00;;;42.20
15626;BMP180;7912;51.376;6.126;2023-08-20T13:05:06;101869.00;;;42.20
15626;BMP180;7912;51.376;6.126;2023-08-20T13:07:52;101870.00;;;42.20
15626;BMP180;7912;51.376;6.126;2023-08-20T13:10:30;101871.00;;;42.00
15626;BMP180;7912;51.376;6.126;2023-08-20T13:13:10;101875.00;;;42.00
15626;BMP180;7912;51.376;6.126;2023-08-20T13:15:42;101869.00;;;41.90
15626;BMP180;7912;51.376;6.126;2023-08-20T13:18:11;101873.00;;;42.00
15626;BMP180;7912;51.376;6.126;2023-08-20T13:22:01;101875.00;;;42.00
15626;BMP180;7912;51.376;6.126;2023-08-20T13:24:36;101878.00;;;42.10
15626;BMP180;7912;51.376;6.126;2023-08-20T13:27:06;101887.00;;;42.30
15626;BMP180;7912;51.376;6.126;2023-08-20T13:29:33;101870.00;;;42.90
15626;BMP180;7912;51.376;6.126;2023-08-20T13:32:02;101872.00;;;43.30
15626;BMP180;7912;51.376;6.126;2023-08-20T13:34:36;101870.00;;;43.50
15626;BMP180;7912;51.376;6.126;2023-08-20T13:37:06;101874.00;;;43.50
15626;BMP180;7912;51.376;6.126;2023-08-20T13:39:33;101870.00;;;43.40
15626;BMP180;7912;51.376;6.126;2023-08-20T13:42:00;101863.00;;;43.40
15626;BMP180;7912;51.376;6.126;2023-08-20T13:44:51;101857.00;;;43.80
15626;BMP180;7912;51.376;6.126;2023-08-20T13:47:52;101858.00;;;44.20
15626;BMP180;7912;51.376;6.126;2023-08-20T13:50:30;101859.00;;;44.50
15626;BMP180;7912;51.376;6.126;2023-08-20T13:53:34;101870.00;;;44.40
15626;BMP180;7912;51.376;6.126;2023-08-20T13:56:17;101871.00;;;44.20
15626;BMP180;7912;51.376;6.126;2023-08-20T13:58:44;101880.00;;;43.50
15626;BMP180;7912;51.376;6.126;2023-08-20T14:01:14;101879.00;;;42.50
15626;BMP180;7912;51.376;6.126;2023-08-20T14:03:47;101882.00;;;41.70
15626;BMP180;7912;51.376;6.126;2023-08-20T14:06:16;101871.00;;;41.20
15626;BMP180;7912;51.376;6.126;2023-08-20T14:08:45;101877.00;;;41.10
15626;BMP180;7912;51.376;6.126;2023-08-20T14:11:13;101875.00;;;41.10
15626;BMP180;7912;51.376;6.126;2023-08-20T14:13:40;101877.00;;;41.20
15626;BMP180;7912;51.376;6.126;2023-08-20T14:16:09;101873.00;;;41.30
15626;BMP180;7912;51.376;6.126;2023-08-20T14:18:37;101872.00;;;41.60
15626;BMP180;7912;51.376;6.126;2023-08-20T14:21:04;101865.00;;;42.00
15626;BMP180;7912;51.376;6.126;2023-08-20T14:23:34;101870.00;;;42.50
15626;BMP180;7912;51.376;6.126;2023-08-20T14:26:06;101858.00;;;43.20
15626;BMP180;7912;51.376;6.126;2023-08-20T14:31:18;101855.00;;;43.50
15626;BMP180;7912;51.376;6.126;2023-08-20T14:33:46;101852.00;;;43.50
15626;BMP180;7912;51.376;6.126;2023-08-20T14:36:18;101855.00;;;43.90
15626;BMP180;7912;51.376;6.126;2023-08-20T14:38:45;101849.00;;;44.10
15626;BMP180;7912;51.376;6.126;2023-08-20T14:41:13;101844.00;;;44.20
15626;BMP180;7912;51.376;6.126;2023-08-20T14:43:43;101845.00;;;44.20
15626;BMP180;7912;51.376;6.126;2023-08-20T14:46:10;101843.00;;;44.20
15626;BMP180;7912;51.376;6.126;2023-08-20T14:49:26;101845.00;;;43.90
15626;BMP180;7912;51.376;6.126;2023-08-20T14:52:24;101852.00;;;43.50
15626;BMP180;7912;51.376;6.126;2023-08-20T14:54:52;101857.00;;;43.40
15626;BMP180;7912;51.376;6.126;2023-08-20T14:57:19;101851.00;;;43.30
15626;BMP180;7912;51.376;6.126;2023-08-20T14:59:46;101849.00;;;43.10
15626;BMP180;7912;51.376;6.126;2023-08-20T15:02:15;101848.00;;;42.90
15626;BMP180;7912;51.376;6.126;2023-08-20T15:04:43;101851.00;;;42.70
15626;BMP180;7912;51.376;6.126;2023-08-20T15:07:11;101850.00;;;42.20
15626;BMP180;7912;51.376;6.126;2023-08-20T15:09:42;101851.00;;;41.70
15626;BMP180;7912;51.376;6.126;2023-08-20T15:12:12;101855.00;;;41.10
15626;BMP180;7912;51.376;6.126;2023-08-20T15:14:39;101859.00;;;40.70
15626;BMP180;7912;51.376;6.126;2023-08-20T15:17:07;101861.00;;;40.50
15626;BMP180;7912;51.376;6.126;2023-08-20T15:19:41;101852.00;;;40.30
15626;BMP180;7912;51.376;6.126;2023-08-20T15:22:13;101864.00;;;40.10
15626;BMP180;7912;51.376;6.126;2023-08-20T15:24:40;101858.00;;;40.00
15626;BMP180;7912;51.376;6.126;2023-08-20T15:27:08;101858.00;;;40.00
15626;BMP180;7912;51.376;6.126;2023-08-20T15:29:36;101865.00;;;40.30
15626;BMP180;7912;51.376;6.126;2023-08-20T15:32:04;101857.00;;;40.50
15626;BMP180;7912;51.376;6.126;2023-08-20T15:34:32;101854.00;;;40.50
15626;BMP180;7912;51.376;6.126;2023-08-20T15:37:02;101850.00;;;40.70
15626;BMP180;7912;51.376;6.126;2023-08-20T15:39:32;101852.00;;;41.10
15626;BMP180;7912;51.376;6.126;2023-08-20T15:42:06;101844.00;;;41.70
15626;BMP180;7912;51.376;6.126;2023-08-20T15:44:34;101842.00;;;42.20
15626;BMP180;7912;51.376;6.126;2023-08-20T15:47:03;101835.00;;;42.80
15626;BMP180;7912;51.376;6.126;2023-08-20T15:49:30;101841.00;;;43.50
15626;BMP180;7912;51.376;6.126;2023-08-20T15:52:01;101834.00;;;43.90
15626;BMP180;7912;51.376;6.126;2023-08-20T15:54:30;101839.00;;;43.70
15626;BMP180;7912;51.376;6.126;2023-08-20T15:57:04;101844.00;;;43.30
15626;BMP180;7912;51.376;6.126;2023-08-20T15:59:36;101843.00;;;42.90
15626;BMP180;7912;51.376;6.126;2023-08-20T16:02:03;101841.00;;;43.00
15626;BMP180;7912;51.376;6.126;2023-08-20T16:04:38;101844.00;;;43.10
15626;BMP180;7912;51.376;6.126;2023-08-20T16:07:16;101832.00;;;43.30
15626;BMP180;7912;51.376;6.126;2023-08-20T16:09:43;101838.00;;;43.60
15626;BMP180;7912;51.376;6.126;2023-08-20T16:12:11;101838.00;;;43.80
15626;BMP180;7912;51.376;6.126;2023-08-20T16:14:44;101844.00;;;44.10
15626;BMP180;7912;51.376;6.126;2023-08-20T16:17:11;101845.00;;;44.10
15626;BMP180;7912;51.376;6.126;2023-08-20T16:19:44;101843.00;;;43.70
15626;BMP180;7912;51.376;6.126;2023-08-20T16:22:16;101834.00;;;43.40
15626;BMP180;7912;51.376;6.126;2023-08-20T16:24:43;101844.00;;;43.20
15626;BMP180;7912;51.376;6.126;2023-08-20T16:27:13;101840.00;;;43.00
15626;BMP180;7912;51.376;6.126;2023-08-20T16:29:41;101841.00;;;42.60
15626;BMP180;7912;51.376;6.126;2023-08-20T16:32:08;101836.00;;;41.90
15626;BMP180;7912;51.376;6.126;2023-08-20T16:34:36;101841.00;;;41.20
15626;BMP180;7912;51.376;6.126;2023-08-20T16:37:03;101843.00;;;40.50
15626;BMP180;7912;51.376;6.126;2023-08-20T16:39:30;101844.00;;;39.80
15626;BMP180;7912;51.376;6.126;2023-08-20T16:42:01;101844.00;;;39.40
15626;BMP180;7912;51.376;6.126;2023-08-20T16:44:28;101845.00;;;39.40